Albany, NY

12:54 AM EST on March 06, 2015 (GMT -0500)
North Greenbush, NY | Change Station
CLOSE
Current Station
Personal Weather Station
Location: Renssleaer, NY
Elevation: 180 ft
Nearby Weather Stations

Elev 180 ft 42.67 °N, 73.71 °W | Updated 2 minutes ago

Clear
Clear
8.8 °F
Feels Like 9 °F
N
0.0
Wind Variable Wind from West
Gusts 3.0 mph

Today
High -- | Low -- °F
--% Chance of Precip.
Yesterday
High -- | Low -- °F
Precip. -- in
6:22 AM 5:50 PM
Full, 100% visible
Pressure 30.46 in
Visibility 10.0 miles
Clouds Clear
Windchill 9 °F
Dew Point -1 °F
Humidity 64%
Rainfall 0.00 in
Snow Depth Not available.
UV 0 out of 12
Pollen .40 out of 12
Ozone Good
PM2.5 Good
Flu Activity Widespread
METAR KALB 060551Z 30008KT 10SM CLR M13/M21 A3044 RMK AO2 SLP315 4/012 T11281206 11078 21128 51022

More Conditions Fewer Conditions

Pressure 30.46 in
Visibility 10.0 miles
Clouds Clear
Windchill 9 °F
Dew Point -1 °F
Humidity 64%
Rainfall 0.00 in
Snow Depth Not available.
UV 0 out of 12
Pollen .40 out of 12
Ozone Good
PM2.5 Good
Flu Activity Widespread
METAR KALB 060551Z 30008KT 10SM CLR M13/M21 A3044 RMK AO2 SLP315 4/012 T11281206 11078 21128 51022

More Conditions Fewer Conditions

10-Day Weather Forecast

Almanac

Astronomy

Mar. 06, 2015 Rise Set
Actual Time 6:22 AM EST 5:50 PM EST
Civil Twilight 5:54 AM EST 6:18 PM EST
Nautical Twilight 5:22 AM EST 6:51 PM EST
Astronomical Twilight 4:49 AM EST 7:24 PM EST
Moon 6:57 PM EST 6:36 AM EST
Length of Visible Light 12h 23m
Length of Day
11h 27m
Tomorrow will be 2m 52s longer.
Full, 100% of the Moon is Illuminated
Today
Full
Mar 13
Last Quarter
Mar 20
New
Mar 27
First Quarter
Apr 4
Full

Today's Extremes

State Highs State Lows

Community

WunderPhotos

Upload Photos

1,803,207 photos uploaded!

Nearby

Air Quality

  Air Quality AQ Index Pollutant
Yesterday Good
PM2.5
Yesterday Good
OZONE
Current Good
PM2.5
Current Good
OZONE
Thursday Good
PM2.5
Friday Good
PM2.5

Snow Depth

Station Depth Elevation
No new snow has been reported.

Earthquake Activity

City Distance Mag. Time & Date
No recent earthquake activity has been reported nearby.
Minimum magnitude displayed is 2.5.

Coastal Water Temperatures

Place Temperature
No Stations Reporting

Nearby Weather Stations